Time;durP1;ratioP1;P1;durP2;ratioP2;P2;SDS_P1;SDS_P2;PMS_P1;PMS_P2;Temp;Humidity;BMP_temperature;BMP_pressure;BME280_temperature;BME280_humidity;BME280_pressure;Samples;Min_cycle;Max_cycle;Signal;HPM_P1;HPM_P2
2023/10/17 00:00:12;;;;;;;4.43;2.33;;;;;;;7.44;60.58;62766.09;5023372;28;20215;-76
2023/10/17 00:02:40;;;;;;;1.63;1.50;;;;;;;7.44;61.63;62763.56;5024552;28;20198;-75
2023/10/17 00:05:09;;;;;;;1.50;1.50;;;;;;;7.44;62.79;62765.59;5023892;28;20307;-76
2023/10/17 00:07:37;;;;;;;4.00;1.73;;;;;;;7.43;63.70;62762.53;5024768;28;20206;-75
2023/10/17 00:10:08;;;;;;;2.15;1.85;;;;;;;7.44;64.75;62765.59;5020842;28;20282;-76
2023/10/17 00:12:43;;;;;;;2.25;2.13;;;;;;;7.48;64.58;62765.16;5018242;28;20215;-76
2023/10/17 00:15:27;;;;;;;4.10;2.05;;;;;;;7.43;64.96;62762.53;5017435;28;20238;-74
2023/10/17 00:18:00;;;;;;;1.90;1.73;;;;;;;7.45;66.07;62769.66;5019869;28;20520;-75
2023/10/17 00:20:32;;;;;;;2.15;1.50;;;;;;;7.47;66.51;62769.19;5016537;28;20237;-75
2023/10/17 00:22:59;;;;;;;3.70;1.40;;;;;;;7.53;66.21;62772.84;5022650;28;20214;-74
2023/10/17 00:25:27;;;;;;;1.80;1.70;;;;;;;7.60;65.95;62782.63;5022848;28;20225;-77
2023/10/17 00:27:57;;;;;;;1.90;1.80;;;;;;;7.57;66.94;62776.47;5019812;28;20203;-74
2023/10/17 00:30:29;;;;;;;2.45;1.90;;;;;;;7.55;67.20;62776.94;5023171;28;20745;-74
2023/10/17 00:32:56;;;;;;;2.78;2.05;;;;;;;7.55;67.15;62776.94;5009886;28;20206;-77
2023/10/17 00:35:26;;;;;;;1.77;1.67;;;;;;;7.58;67.45;62783.09;5020429;28;20226;-75
2023/10/17 00:37:57;;;;;;;3.50;1.55;;;;;;;7.49;68.13;62771.25;5013433;28;20298;-74
2023/10/17 00:43:13;;;;;;;2.58;2.10;;;;;;;7.47;68.95;62766.66;5021382;28;20394;-74
2023/10/17 00:45:40;;;;;;;2.33;2.20;;;;;;;7.51;69.29;62777.88;5019610;28;20234;-74
2023/10/17 00:48:16;;;;;;;2.40;2.20;;;;;;;7.47;70.19;62766.66;5024242;28;20373;-75
2023/10/17 00:50:45;;;;;;;3.58;2.67;;;;;;;7.52;70.00;62773.84;5022960;28;20436;-75
2023/10/17 00:53:13;;;;;;;2.00;1.90;;;;;;;7.47;70.79;62769.19;5022506;28;20263;-75
2023/10/17 00:55:49;;;;;;;4.97;2.10;;;;;;;7.40;71.04;62759.44;5026077;28;20231;-75
2023/10/17 00:58:21;;;;;;;2.72;2.20;;;;;;;7.37;72.48;62755.84;5025350;28;20234;-76
2023/10/17 01:00:53;;;;;;;4.85;2.40;;;;;;;7.39;73.50;62760.41;5027948;28;20289;-76
2023/10/17 01:03:24;;;;;;;2.35;2.05;;;;;;;7.39;74.13;62760.94;5026241;28;20198;-75
2023/10/17 01:06:10;;;;;;;2.45;2.25;;;;;;;7.40;74.54;62761.97;5028835;28;20230;-75
2023/10/17 01:08:39;;;;;;;6.45;2.50;;;;;;;7.26;76.34;62747.00;5022029;28;20218;-74
2023/10/17 01:11:14;;;;;;;2.33;2.22;;;;;;;7.26;76.22;62747.00;5017961;28;20230;-74
2023/10/17 01:13:43;;;;;;;2.70;2.33;;;;;;;7.27;77.39;62748.56;5025332;28;20214;-74
2023/10/17 01:16:15;;;;;;;2.55;2.35;;;;;;;7.24;78.30;62742.41;5025424;28;20223;-73
2023/10/17 01:18:44;;;;;;;2.47;2.33;;;;;;;7.28;77.96;62746.53;5024205;28;20227;-73
2023/10/17 01:21:13;;;;;;;3.15;2.58;;;;;;;7.25;78.88;62743.44;5024003;28;20222;-75
2023/10/17 01:23:40;;;;;;;3.47;2.58;;;;;;;7.27;78.94;62743.50;5022338;28;20218;-74
2023/10/17 01:26:14;;;;;;;2.47;2.25;;;;;;;7.26;79.23;62747.00;5026433;28;20222;-74
2023/10/17 01:28:47;;;;;;;4.32;2.30;;;;;;;7.21;79.92;62739.31;5026034;28;20515;-74
2023/10/17 01:31:16;;;;;;;3.40;3.08;;;;;;;7.20;80.31;62741.31;5016863;28;20268;-76
2023/10/17 01:33:44;;;;;;;5.80;2.80;;;;;;;7.19;80.39;62737.78;5025712;28;20221;-75
2023/10/17 01:36:16;;;;;;;3.10;2.42;;;;;;;7.18;80.68;62736.72;5026790;28;20226;-76
2023/10/17 01:38:45;;;;;;;3.15;2.45;;;;;;;7.09;81.62;62734.53;5018631;28;20265;-75
2023/10/17 01:41:14;;;;;;;5.03;3.00;;;;;;;7.13;82.53;62731.56;5026949;28;20230;-74
2023/10/17 01:43:42;;;;;;;3.20;2.92;;;;;;;7.19;83.46;62735.25;5024780;28;20274;-74
2023/10/17 01:46:15;;;;;;;4.07;3.25;;;;;;;7.14;83.45;62737.16;5025992;28;20286;-75
2023/10/17 01:48:44;;;;;;;2.30;2.20;;;;;;;7.15;83.19;62735.66;5024368;28;20275;-75
2023/10/17 01:51:13;;;;;;;3.65;3.13;;;;;;;7.18;82.55;62741.28;5019454;28;20242;-75
2023/10/17 01:53:41;;;;;;;8.48;3.05;;;;;;;7.19;82.50;62742.84;5023188;28;20274;-74
2023/10/17 01:56:15;;;;;;;4.25;2.63;;;;;;;7.21;82.50;62739.84;5027226;28;20227;-75
2023/10/17 01:58:48;;;;;;;2.92;2.70;;;;;;;7.19;81.96;62740.31;5026324;28;20293;-74
2023/10/17 02:01:17;;;;;;;4.15;2.70;;;;;;;7.20;81.18;62741.31;5024474;28;20229;-74
2023/10/17 02:03:44;;;;;;;3.67;2.78;;;;;;;7.15;82.36;62738.19;5026757;28;20290;-75
2023/10/17 02:06:16;;;;;;;2.95;2.50;;;;;;;7.18;82.43;62736.22;5026306;28;20298;-75
2023/10/17 02:08:44;;;;;;;2.25;2.08;;;;;;;7.18;82.47;62736.72;5016187;28;20202;-74
2023/10/17 02:11:23;;;;;;;9.27;3.22;;;;;;;7.24;81.66;62740.41;5024294;28;20246;-74
2023/10/17 02:13:53;;;;;;;10.02;3.20;;;;;;;7.24;81.15;62742.41;5022593;28;20214;-75
2023/10/17 02:16:22;;;;;;;2.95;2.67;;;;;;;7.24;81.87;62744.94;5017653;28;20274;-74
2023/10/17 02:18:50;;;;;;;3.35;3.05;;;;;;;7.31;81.19;62752.69;5007657;28;20274;-73
2023/10/17 02:21:18;;;;;;;4.47;2.90;;;;;;;7.32;81.01;62753.72;5024194;28;20223;-75
2023/10/17 02:23:49;;;;;;;4.07;2.72;;;;;;;7.37;80.86;62758.38;5023939;28;20549;-75
2023/10/17 02:26:21;;;;;;;3.13;2.88;;;;;;;7.35;81.50;62756.31;5024383;28;20258;-74
2023/10/17 02:28:53;;;;;;;7.00;3.50;;;;;;;7.37;81.41;62753.31;5011568;28;20219;-73
2023/10/17 02:31:27;;;;;;;4.43;3.22;;;;;;;7.39;81.71;62760.41;5023027;28;20243;-74
2023/10/17 02:33:56;;;;;;;3.33;3.03;;;;;;;7.33;82.67;62751.69;5026836;28;20206;-78
2023/10/17 02:36:23;;;;;;;3.08;2.78;;;;;;;7.37;82.01;62758.38;5025755;28;20479;-75
2023/10/17 02:38:51;;;;;;;8.80;3.28;;;;;;;7.28;83.00;62749.59;5024505;28;20222;-75
2023/10/17 02:41:22;;;;;;;6.78;3.75;;;;;;;7.23;83.53;62744.41;5023514;28;20218;-75
2023/10/17 02:43:53;;;;;;;5.55;3.10;;;;;;;6.98;85.78;62719.16;5027990;28;20209;-76
2023/10/17 02:46:26;;;;;;;3.33;2.95;;;;;;;6.73;87.63;62690.31;5022399;28;20258;-75
2023/10/17 02:48:54;;;;;;;5.70;3.13;;;;;;;6.53;90.35;62672.75;5026324;28;20206;-75
2023/10/17 02:54:12;;;;;;;3.53;2.72;;;;;;;6.51;90.24;62667.63;5015548;28;20249;-74
2023/10/17 02:56:46;;;;;;;3.50;3.25;;;;;;;6.49;91.00;62668.09;5007187;28;20187;-75
2023/10/17 02:59:17;;;;;;;3.53;3.33;;;;;;;6.48;91.10;62664.53;5015567;28;20289;-75
2023/10/17 03:01:47;;;;;;;3.40;3.08;;;;;;;6.44;91.03;62663.44;5024314;28;20259;-76
2023/10/17 03:04:17;;;;;;;4.03;3.25;;;;;;;6.56;90.19;62677.84;5025728;28;20198;-75
2023/10/17 03:06:46;;;;;;;6.03;3.92;;;;;;;6.60;90.35;62676.91;5012363;28;20211;-76
2023/10/17 03:09:33;;;;;;;3.42;3.22;;;;;;;6.64;90.10;62684.06;5019351;28;20201;-75
2023/10/17 03:12:09;;;;;;;3.20;3.00;;;;;;;6.69;90.40;62691.78;5025301;28;20211;-75
2023/10/17 03:17:24;;;;;;;3.75;3.38;;;;;;;6.70;90.74;62684.69;5023092;28;20203;-74
2023/10/17 03:19:51;;;;;;;3.30;3.10;;;;;;;6.78;90.62;62698.00;5010864;28;20236;-74
2023/10/17 03:22:19;;;;;;;6.18;2.83;;;;;;;6.81;91.47;62701.63;5017616;28;20206;-75
2023/10/17 03:24:51;;;;;;;3.78;3.42;;;;;;;6.91;91.30;62706.88;5012614;28;20273;-76
2023/10/17 03:27:27;;;;;;;8.30;3.53;;;;;;;6.94;91.57;62717.56;5025888;28;20211;-75
2023/10/17 03:29:56;;;;;;;5.07;3.30;;;;;;;6.96;91.63;62719.09;5011845;28;20365;-75
2023/10/17 03:32:23;;;;;;;3.50;3.20;;;;;;;7.01;91.25;62719.19;5021391;28;20211;-75
2023/10/17 03:34:56;;;;;;;3.50;3.20;;;;;;;6.96;91.77;62714.56;5025072;28;20258;-74
2023/10/17 03:37:30;;;;;;;3.30;3.10;;;;;;;7.03;91.34;62719.25;5017302;28;20258;-77
2023/10/17 03:40:03;;;;;;;3.60;3.30;;;;;;;7.14;90.70;62734.63;5011440;28;20234;-74
2023/10/17 03:42:41;;;;;;;3.72;3.42;;;;;;;7.15;90.90;62733.63;5015588;28;20406;-73
2023/10/17 03:45:16;;;;;;;6.90;3.28;;;;;;;7.21;91.31;62737.31;5023362;28;20234;-74
2023/10/17 03:47:47;;;;;;;8.57;3.60;;;;;;;7.23;90.92;62743.91;5013578;28;20198;-75
2023/10/17 03:50:31;;;;;;;4.00;3.72;;;;;;;7.25;90.75;62746.50;5023157;28;20261;-74
2023/10/17 03:53:04;;;;;;;3.40;3.20;;;;;;;7.30;90.52;62751.13;5018022;28;20269;-75
2023/10/17 03:55:32;;;;;;;6.40;3.35;;;;;;;7.34;90.51;62748.19;5012941;28;20538;-73
2023/10/17 03:58:08;;;;;;;8.48;2.85;;;;;;;7.35;90.33;62759.34;5011425;28;20378;-75
2023/10/17 04:00:43;;;;;;;4.68;3.30;;;;;;;7.42;90.00;62758.47;5022318;28;20526;-75
2023/10/17 04:03:19;;;;;;;6.57;3.25;;;;;;;7.41;90.15;62759.94;5016580;28;20216;-74
2023/10/17 04:05:49;;;;;;;5.40;3.22;;;;;;;7.44;89.29;62763.56;5012470;28;20227;-74
2023/10/17 04:08:18;;;;;;;3.13;2.92;;;;;;;7.46;88.61;62765.63;5023460;28;20249;-75
2023/10/17 04:10:52;;;;;;;3.92;3.33;;;;;;;7.45;88.83;62769.66;5014001;28;20230;-74
2023/10/17 04:13:23;;;;;;;4.25;3.50;;;;;;;7.45;89.32;62764.59;5021536;28;20210;-74
2023/10/17 04:15:53;;;;;;;3.35;3.15;;;;;;;7.41;89.65;62757.94;5018767;28;20733;-74
2023/10/17 04:18:22;;;;;;;4.35;3.45;;;;;;;7.41;89.72;62763.00;5019105;28;20210;-75
2023/10/17 04:20:58;;;;;;;4.25;3.78;;;;;;;7.40;90.46;62764.00;5024679;28;20238;-76
2023/10/17 04:23:30;;;;;;;11.70;3.28;;;;;;;7.43;89.59;62765.06;5014659;28;20275;-76
2023/10/17 04:25:57;;;;;;;11.50;3.47;;;;;;;7.55;88.49;62780.00;5019110;28;20473;-76
2023/10/17 04:28:27;;;;;;;6.35;4.22;;;;;;;7.58;88.15;62778.00;5025845;28;20233;-76
2023/10/17 04:30:59;;;;;;;3.15;2.88;;;;;;;7.65;87.70;62787.25;5018069;28;20242;-75
2023/10/17 04:33:29;;;;;;;7.05;3.35;;;;;;;7.64;87.34;62786.22;5022197;28;20293;-76
2023/10/17 04:35:59;;;;;;;3.92;3.53;;;;;;;7.69;87.15;62791.38;5025038;28;20434;-76
2023/10/17 04:38:36;;;;;;;3.17;2.97;;;;;;;7.69;87.13;62791.38;5022112;28;20206;-76
2023/10/17 04:41:13;;;;;;;3.65;3.08;;;;;;;7.67;87.68;62789.84;5021385;28;20218;-76
2023/10/17 04:43:54;;;;;;;3.75;3.45;;;;;;;7.66;88.02;62786.25;5022887;28;20246;-75
2023/10/17 04:46:28;;;;;;;3.78;3.33;;;;;;;7.65;87.74;62784.72;5021394;28;20332;-76
2023/10/17 04:49:04;;;;;;;3.97;3.63;;;;;;;7.75;93.00;62797.56;5023080;28;20216;-76
2023/10/17 04:51:37;;;;;;;3.30;3.10;;;;;;;7.74;88.28;62797.06;5019293;28;20211;-76
2023/10/17 04:54:17;;;;;;;4.20;3.80;;;;;;;7.69;87.54;62788.84;5022847;28;20277;-76
2023/10/17 04:56:53;;;;;;;3.55;3.25;;;;;;;7.70;88.29;62795.47;5022757;28;20557;-77
2023/10/17 04:59:41;;;;;;;5.75;3.55;;;;;;;7.77;88.15;62792.56;5024621;28;20462;-76
2023/10/17 05:02:35;;;;;;;5.80;3.78;;;;;;;7.76;88.16;62794.06;5021464;28;20210;-76
2023/10/17 05:05:39;;;;;;;3.50;3.20;;;;;;;7.83;87.87;62803.84;5004353;28;20389;-75
2023/10/17 05:08:18;;;;;;;4.30;3.38;;;;;;;7.74;89.30;62797.06;5005566;28;20224;-76
2023/10/17 06:17:27;;;;;;;3.90;2.83;;;;;;;9.18;78.23;62942.28;5026095;28;20238;-75
2023/10/17 06:19:58;;;;;;;5.90;3.00;;;;;;;9.42;76.83;62969.63;5026657;28;20241;-76
2023/10/17 06:31:32;;;;;;;3.65;3.13;;;;;;;10.32;71.52;63065.28;5027076;28;20230;-76
2023/10/17 06:33:37;;;;;;;3.10;2.90;;;;;;;10.48;70.01;63081.84;5022644;28;20245;-75
2023/10/17 06:36:13;;;;;;;3.03;2.83;;;;;;;10.68;68.66;63099.50;5026511;28;20250;-74
2023/10/17 06:38:46;;;;;;;4.18;2.95;;;;;;;10.81;66.90;63112.94;5026574;28;20206;-76
2023/10/17 06:41:27;;;;;;;7.22;3.13;;;;;;;10.98;66.48;63132.56;5026688;28;20302;-76
2023/10/17 06:43:56;;;;;;;2.78;2.63;;;;;;;11.21;65.15;63156.91;5014695;28;20222;-76
2023/10/17 06:46:30;;;;;;;2.35;2.20;;;;;;;11.41;63.65;63177.09;5027554;28;20221;-76
2023/10/17 06:48:58;;;;;;;4.55;3.20;;;;;;;11.69;63.79;63200.50;5024170;28;20222;-76
2023/10/17 06:51:33;;;;;;;4.20;3.58;;;;;;;11.53;63.88;63187.50;5021582;28;20298;-75
2023/10/17 06:54:06;;;;;;;5.20;3.53;;;;;;;11.97;63.64;63229.50;5015170;28;20202;-75
2023/10/17 06:56:41;;;;;;;2.80;2.60;;;;;;;12.01;61.61;63236.22;5019327;28;20234;-76
2023/10/17 06:59:24;;;;;;;10.48;5.82;;;;;;;12.24;60.45;63258.00;5018646;28;20202;-75
2023/10/17 07:04:46;;;;;;;2.58;2.33;;;;;;;12.30;59.71;63264.25;4992223;28;20239;-76
2023/10/17 07:07:13;;;;;;;2.08;1.92;;;;;;;12.41;59.73;63275.13;5010776;28;20198;-76
2023/10/17 07:09:42;;;;;;;2.53;2.33;;;;;;;12.43;59.78;63280.25;5026046;28;20252;-77
2023/10/17 07:12:14;;;;;;;2.42;2.33;;;;;;;12.40;58.70;63277.16;5026395;28;20534;-75
2023/10/17 07:14:47;;;;;;;2.25;1.90;;;;;;;12.57;59.23;63291.69;5024814;28;20443;-75
2023/10/17 07:17:25;;;;;;;3.03;2.17;;;;;;;12.50;58.63;63287.00;5020339;28;20215;-76
2023/10/17 07:20:12;;;;;;;5.85;2.88;;;;;;;12.55;58.38;63295.25;5022593;28;20238;-78
2023/10/17 07:22:41;;;;;;;3.33;2.47;;;;;;;12.54;58.73;63291.69;5013663;28;20206;-75
2023/10/17 07:25:16;;;;;;;3.90;2.72;;;;;;;12.66;57.43;63299.00;5023947;28;20299;-77
2023/10/17 07:27:46;;;;;;;7.68;2.28;;;;;;;12.52;56.95;63294.19;5024480;28;20195;-75
2023/10/17 07:30:13;;;;;;;3.92;2.10;;;;;;;12.60;56.52;63297.38;5024852;28;20278;-75
2023/10/17 07:32:47;;;;;;;2.83;2.35;;;;;;;12.70;56.10;63310.81;5021238;28;20206;-75
2023/10/17 07:35:23;;;;;;;2.40;2.25;;;;;;;12.87;55.71;63324.84;5026479;28;20230;-77
2023/10/17 07:38:03;;;;;;;2.65;2.45;;;;;;;12.77;54.60;63318.06;5026147;28;20203;-78
2023/10/17 07:40:42;;;;;;;2.88;2.63;;;;;;;12.49;55.81;63289.03;5026250;28;20253;-75
2023/10/17 07:43:12;;;;;;;3.50;2.40;;;;;;;12.60;56.33;63295.34;5026386;28;20214;-77
2023/10/17 07:45:39;;;;;;;3.50;2.15;;;;;;;12.58;56.06;63290.69;5026169;28;20226;-76
2023/10/17 07:48:19;;;;;;;2.65;2.53;;;;;;;12.62;56.16;63297.41;5020864;28;20194;-76
2023/10/17 07:50:50;;;;;;;5.43;2.42;;;;;;;12.38;56.76;63272.00;5024962;28;20257;-76
2023/10/17 07:53:19;;;;;;;2.35;2.17;;;;;;;12.70;56.41;63302.63;5029541;28;20231;-79
2023/10/17 07:55:49;;;;;;;2.88;2.67;;;;;;;12.56;56.20;63290.69;5028748;28;20226;-77
2023/10/17 08:01:04;;;;;;;2.10;2.00;;;;;;;13.09;54.65;63347.69;5028555;28;20463;-75
2023/10/17 08:03:31;;;;;;;2.10;2.00;;;;;;;13.40;53.98;63380.38;5029145;28;20206;-76
2023/10/17 08:06:05;;;;;;;2.35;2.20;;;;;;;13.52;53.03;63390.25;5029577;28;20217;-76
2023/10/17 08:08:34;;;;;;;2.08;1.98;;;;;;;13.43;52.93;63383.47;5021213;28;20205;-76
2023/10/17 08:11:03;;;;;;;2.05;1.60;;;;;;;13.38;51.93;63375.22;5031725;28;20249;-76
2023/10/17 08:13:33;;;;;;;1.90;1.80;;;;;;;13.08;52.64;63346.66;5031289;28;20206;-77
2023/10/17 08:16:07;;;;;;;1.80;1.70;;;;;;;12.78;54.66;63318.59;5014502;28;20214;-76
2023/10/17 08:18:41;;;;;;;3.05;2.03;;;;;;;12.55;54.80;63292.19;5020547;28;20249;-76
2023/10/17 08:23:54;;;;;;;4.53;2.10;;;;;;;12.98;53.79;63336.28;5015814;28;20201;-76
2023/10/17 08:26:28;;;;;;;4.53;2.00;;;;;;;13.08;53.54;63344.09;5015726;28;20242;-76
2023/10/17 08:28:56;;;;;;;2.03;1.85;;;;;;;13.04;54.78;63343.03;5014927;28;20206;-77
2023/10/17 08:31:24;;;;;;;3.85;2.05;;;;;;;13.11;53.56;63349.75;5016991;28;20214;-76
2023/10/17 08:34:02;;;;;;;2.33;2.20;;;;;;;13.31;52.26;63373.59;5017277;28;20226;-76
2023/10/17 08:36:42;;;;;;;3.22;2.33;;;;;;;13.48;52.11;63388.16;5014217;28;20227;-75
2023/10/17 08:39:26;;;;;;;4.53;1.88;;;;;;;13.62;52.34;63402.69;5015261;28;20208;-76
2023/10/17 08:41:57;;;;;;;4.90;1.92;;;;;;;13.79;52.38;63418.28;5014846;28;20227;-77
2023/10/17 08:44:31;;;;;;;2.40;2.20;;;;;;;13.84;51.13;63422.94;5013913;28;20202;-76
2023/10/17 08:46:59;;;;;;;3.33;1.95;;;;;;;13.83;51.43;63427.56;5012721;28;20199;-77
2023/10/17 08:49:27;;;;;;;7.50;2.10;;;;;;;13.97;50.97;63441.56;5014442;28;20262;-76
2023/10/17 08:51:56;;;;;;;2.70;2.00;;;;;;;14.15;50.61;63457.19;5015760;28;20271;-76
2023/10/17 08:54:24;;;;;;;2.30;2.10;;;;;;;13.86;51.56;63428.09;5017302;28;20407;-77
2023/10/17 08:56:51;;;;;;;2.38;2.17;;;;;;;13.97;51.41;63438.47;5014680;28;20390;-76
2023/10/17 08:59:34;;;;;;;2.47;2.33;;;;;;;14.15;51.27;63454.63;5016090;28;20228;-76
2023/10/17 09:02:03;;;;;;;2.47;2.28;;;;;;;14.03;51.13;63440.09;5012512;28;20262;-78
2023/10/17 09:04:33;;;;;;;6.47;2.05;;;;;;;14.16;51.14;63456.19;5016630;28;20218;-77
2023/10/17 09:07:05;;;;;;;2.22;1.95;;;;;;;14.15;51.22;63457.19;5026680;28;20540;-75
2023/10/17 09:09:33;;;;;;;4.53;2.00;;;;;;;14.32;50.36;63477.41;5016927;28;20299;-75
2023/10/17 09:12:21;;;;;;;2.03;1.92;;;;;;;14.37;50.30;63480.03;5022402;28;20254;-77
2023/10/17 09:14:52;;;;;;;2.90;2.40;;;;;;;14.43;51.22;63488.81;5013918;28;20237;-77
2023/10/17 09:17:30;;;;;;;3.17;2.83;;;;;;;14.47;51.94;63496.06;5015116;28;20210;-76
2023/10/17 09:20:06;;;;;;;4.47;2.30;;;;;;;14.39;51.14;63485.19;5022799;28;20237;-77
2023/10/17 09:22:43;;;;;;;4.22;2.05;;;;;;;14.42;51.40;63482.66;5017446;28;20376;-76
2023/10/17 09:25:22;;;;;;;4.80;2.42;;;;;;;14.33;51.64;63476.41;5023140;28;20245;-76
2023/10/17 09:27:53;;;;;;;2.97;2.78;;;;;;;14.41;51.94;63481.63;5021676;28;20279;-77
2023/10/17 09:30:23;;;;;;;2.42;2.20;;;;;;;14.48;51.83;63486.84;5018535;28;20249;-77
2023/10/17 09:32:51;;;;;;;2.00;1.90;;;;;;;14.40;52.63;63485.72;5019530;28;22927;-77
2023/10/17 09:35:20;;;;;;;3.72;2.13;;;;;;;14.53;51.12;63492.03;5022724;28;20229;-77
2023/10/17 09:37:50;;;;;;;2.90;2.33;;;;;;;14.58;51.14;63496.72;5018131;28;20199;-77
2023/10/17 09:40:25;;;;;;;2.22;2.03;;;;;;;14.25;52.42;63467.56;5014793;28;20234;-77
2023/10/17 09:42:53;;;;;;;3.33;2.70;;;;;;;14.45;53.95;63488.34;5013848;28;20233;-77
2023/10/17 09:45:21;;;;;;;3.05;2.25;;;;;;;14.49;50.90;63487.38;5016059;28;20285;-77
2023/10/17 09:47:57;;;;;;;1.63;1.52;;;;;;;14.51;50.58;63489.97;5018386;28;20503;-77
2023/10/17 09:50:26;;;;;;;3.47;2.28;;;;;;;14.18;51.04;63458.25;5015497;28;20295;-76
2023/10/17 09:52:56;;;;;;;3.20;1.95;;;;;;;14.08;51.49;63449.91;5016493;28;20234;-76
2023/10/17 09:55:25;;;;;;;2.25;2.10;;;;;;;14.05;51.28;63446.81;5019114;28;20240;-76
2023/10/17 09:57:59;;;;;;;3.35;2.47;;;;;;;14.15;51.18;63455.13;5015299;28;20388;-76
2023/10/17 10:00:32;;;;;;;2.85;1.70;;;;;;;14.18;51.22;63458.25;5016192;28;20427;-77
2023/10/17 10:03:01;;;;;;;5.00;2.53;;;;;;;14.24;50.75;63469.06;5025269;28;20502;-76
2023/10/17 10:05:29;;;;;;;3.85;2.00;;;;;;;14.22;50.24;63461.88;5017815;28;20250;-77
2023/10/17 10:08:01;;;;;;;3.33;2.97;;;;;;;14.30;50.48;63475.84;5016133;28;20198;-75
2023/10/17 10:10:52;;;;;;;2.83;2.55;;;;;;;14.19;51.58;63458.75;5017261;28;20563;-77
2023/10/17 10:13:21;;;;;;;3.42;3.17;;;;;;;14.24;50.41;63469.59;5020371;28;20242;-76
2023/10/17 10:15:53;;;;;;;2.58;2.38;;;;;;;14.26;50.17;63471.69;5025590;28;20218;-76
2023/10/17 10:18:57;;;;;;;2.38;2.28;;;;;;;14.26;50.24;63471.16;5018925;28;20249;-78
2023/10/17 10:21:54;;;;;;;7.97;3.95;;;;;;;14.11;51.29;63453.53;5033039;28;20300;-78
2023/10/17 10:24:26;;;;;;;10.90;3.92;;;;;;;14.02;50.90;63443.69;5026306;28;20263;-78
2023/10/17 10:27:26;;;;;;;4.45;2.38;;;;;;;13.98;51.02;63436.97;5030750;28;20198;-78
2023/10/17 10:29:54;;;;;;;3.45;2.53;;;;;;;14.07;50.47;63449.38;5030845;28;20227;-78
2023/10/17 10:32:35;;;;;;;3.95;2.03;;;;;;;14.16;50.60;63458.22;5031038;28;20210;-79
2023/10/17 10:35:06;;;;;;;2.17;2.03;;;;;;;14.10;51.09;63454.56;5007937;28;20262;-77
2023/10/17 10:37:35;;;;;;;3.60;2.00;;;;;;;14.18;50.80;63460.81;5007861;28;20240;-79
2023/10/17 10:40:11;;;;;;;4.57;2.20;;;;;;;14.23;50.67;63465.47;5019618;28;20511;-76
2023/10/17 10:42:48;;;;;;;2.40;2.30;;;;;;;14.05;50.94;63449.88;5027323;28;20198;-78
2023/10/17 10:45:26;;;;;;;4.80;1.85;;;;;;;13.99;51.62;63440.56;5027489;28;20229;-76
2023/10/17 10:47:57;;;;;;;3.47;2.88;;;;;;;13.84;51.70;63423.47;5024653;28;20194;-76
2023/10/17 10:50:29;;;;;;;3.78;3.08;;;;;;;13.69;51.96;63407.91;5009483;28;20227;-77
2023/10/17 10:52:58;;;;;;;2.97;2.67;;;;;;;13.60;52.82;63405.72;5027590;28;20226;-75
2023/10/17 10:55:26;;;;;;;2.28;2.10;;;;;;;13.60;53.51;63401.13;5026689;28;20230;-77
2023/10/17 10:57:53;;;;;;;5.30;2.33;;;;;;;13.42;54.04;63387.03;5016843;28;20375;-77
2023/10/17 11:00:21;;;;;;;2.40;2.20;;;;;;;13.51;54.77;63391.78;5024100;28;20244;-78
2023/10/17 11:02:51;;;;;;;4.28;2.78;;;;;;;13.41;55.36;63381.41;5026885;28;20195;-77
2023/10/17 11:05:20;;;;;;;4.03;2.55;;;;;;;13.53;56.09;63393.84;5025977;28;20246;-77
2023/10/17 11:08:00;;;;;;;3.67;2.58;;;;;;;13.53;56.32;63395.91;5007071;28;20511;-78
2023/10/17 11:10:29;;;;;;;4.88;2.70;;;;;;;13.55;56.62;63398.50;5008679;28;20266;-76
2023/10/17 11:12:56;;;;;;;2.40;2.30;;;;;;;13.72;56.03;63410.50;5008220;28;20207;-77
2023/10/17 11:15:29;;;;;;;6.18;2.90;;;;;;;13.92;55.22;63436.38;5016840;28;20230;-77
2023/10/17 11:18:06;;;;;;;2.88;2.35;;;;;;;13.98;54.41;63442.59;5027639;28;20198;-75
2023/10/17 11:20:34;;;;;;;2.30;2.20;;;;;;;13.98;54.17;63442.59;5019155;28;20225;-77
2023/10/17 11:23:05;;;;;;;3.47;2.75;;;;;;;14.04;54.32;63446.28;5016816;28;20468;-78
2023/10/17 11:25:34;;;;;;;3.35;2.13;;;;;;;13.90;54.60;63429.72;5021241;28;20286;-77
2023/10/17 11:28:06;;;;;;;2.45;2.17;;;;;;;14.15;53.88;63460.25;5026613;28;20346;-75
2023/10/17 11:30:36;;;;;;;2.05;1.83;;;;;;;14.28;53.29;63470.69;5020716;28;20219;-76
2023/10/17 11:33:05;;;;;;;2.50;2.30;;;;;;;14.48;52.33;63486.84;5011929;28;20204;-77
2023/10/17 11:35:34;;;;;;;3.63;2.42;;;;;;;14.41;51.41;63484.72;5026842;28;20214;-77
2023/10/17 11:38:03;;;;;;;6.18;2.28;;;;;;;14.35;51.38;63481.03;5009743;28;20212;-76
2023/10/17 11:40:32;;;;;;;5.18;2.72;;;;;;;14.30;51.30;63472.78;5006665;28;20448;-77
2023/10/17 11:43:15;;;;;;;4.28;2.33;;;;;;;14.38;51.73;63479.03;5015524;28;20264;-77
2023/10/17 11:45:42;;;;;;;3.00;2.75;;;;;;;14.37;51.79;63482.59;5027335;28;20286;-77
2023/10/17 11:48:26;;;;;;;2.95;2.75;;;;;;;14.45;51.13;63490.91;5022026;28;20214;-77
2023/10/17 11:51:05;;;;;;;5.45;3.08;;;;;;;14.53;50.28;63494.59;5007821;28;20288;-75
2023/10/17 11:53:34;;;;;;;4.00;2.65;;;;;;;14.41;50.70;63484.72;5006889;28;20264;-76
2023/10/17 11:56:02;;;;;;;3.25;2.63;;;;;;;14.19;51.39;63464.41;5008178;28;20278;-75
2023/10/17 11:58:30;;;;;;;3.13;2.78;;;;;;;14.14;51.75;63456.66;5006470;28;20221;-77
2023/10/17 12:00:59;;;;;;;3.38;2.83;;;;;;;14.26;51.68;63468.59;5016639;28;20230;-76
2023/10/17 12:03:27;;;;;;;3.78;3.30;;;;;;;14.39;50.92;63482.13;5025771;28;20199;-77
2023/10/17 12:05:55;;;;;;;6.32;3.55;;;;;;;14.48;50.91;63491.47;5025764;28;20222;-76
2023/10/17 12:08:29;;;;;;;10.43;4.25;;;;;;;14.45;50.95;63490.91;5026205;28;20200;-77
2023/10/17 12:10:57;;;;;;;3.60;3.13;;;;;;;14.29;50.86;63472.25;5021032;28;20293;-75
2023/10/17 12:13:26;;;;;;;5.15;2.92;;;;;;;14.31;50.60;63474.31;5026391;28;20206;-75
2023/10/17 12:15:56;;;;;;;2.65;2.45;;;;;;;14.29;50.49;63469.19;5025475;28;20223;-76
2023/10/17 12:18:25;;;;;;;2.83;2.45;;;;;;;14.21;51.10;63458.81;5020342;28;20598;-76
2023/10/17 12:20:55;;;;;;;3.05;2.50;;;;;;;14.21;51.01;63466.50;5016048;28;20219;-75
2023/10/17 12:23:29;;;;;;;2.08;1.98;;;;;;;14.20;51.42;63464.94;5018014;28;20368;-77
2023/10/17 12:26:01;;;;;;;2.10;2.00;;;;;;;14.19;51.73;63458.75;5025378;28;20412;-75
2023/10/17 12:28:30;;;;;;;32.47;17.02;;;;;;;14.03;55.43;63447.28;5020866;28;20374;-75
2023/10/17 12:30:58;;;;;;;4.53;3.08;;;;;;;14.02;52.85;63443.69;5018130;28;20237;-75
2023/10/17 12:33:25;;;;;;;2.47;1.98;;;;;;;13.99;52.66;63443.13;5006510;28;20276;-76
2023/10/17 12:35:54;;;;;;;3.88;1.90;;;;;;;13.95;53.12;63431.81;5005280;28;20223;-74
2023/10/17 12:38:25;;;;;;;14.60;8.88;;;;;;;13.93;55.66;63432.28;5017093;28;20476;-74
2023/10/17 12:40:54;;;;;;;17.33;10.07;;;;;;;13.85;57.00;63424.00;5019926;28;20223;-76
2023/10/17 12:43:23;;;;;;;4.53;4.07;;;;;;;13.81;56.26;63422.91;5006764;28;20370;-76
2023/10/17 12:45:52;;;;;;;18.80;12.80;;;;;;;13.72;58.38;63411.00;5006437;28;20532;-76
2023/10/17 12:48:20;;;;;;;2.47;2.28;;;;;;;13.62;55.60;63403.19;5010290;28;20210;-75
2023/10/17 12:50:47;;;;;;;8.10;3.95;;;;;;;13.41;55.88;63381.41;5009525;28;20215;-76
2023/10/17 12:53:17;;;;;;;8.20;4.60;;;;;;;13.40;56.56;63380.38;5024050;28;20241;-76
2023/10/17 12:55:45;;;;;;;4.78;2.17;;;;;;;13.34;55.76;63374.13;5025789;28;20242;-75
2023/10/17 12:58:12;;;;;;;3.67;2.55;;;;;;;13.33;55.83;63372.59;5025438;28;20207;-77
2023/10/17 13:00:42;;;;;;;11.20;2.53;;;;;;;13.28;55.00;63367.94;5023033;28;20253;-75
2023/10/17 13:03:09;;;;;;;3.03;2.28;;;;;;;13.24;55.31;63363.75;5024816;28;20463;-76
2023/10/17 13:05:37;;;;;;;5.70;2.35;;;;;;;13.25;55.67;63364.28;5024861;28;20282;-74
2023/10/17 13:08:05;;;;;;;6.10;2.50;;;;;;;13.26;55.64;63365.31;5022217;28;20213;-76
2023/10/17 13:10:33;;;;;;;2.13;2.03;;;;;;;13.30;55.64;63369.47;5015524;28;20211;-75
2023/10/17 13:13:00;;;;;;;3.08;2.50;;;;;;;13.25;56.19;63364.28;5024667;28;20225;-76
2023/10/17 13:15:29;;;;;;;3.83;2.10;;;;;;;13.17;56.93;63358.53;5021225;28;20261;-75
2023/10/17 13:18:00;;;;;;;2.15;2.05;;;;;;;13.08;56.90;63346.66;5023200;28;20203;-74
2023/10/17 13:20:31;;;;;;;2.80;2.60;;;;;;;13.09;57.13;63348.22;5014167;28;20250;-74
2023/10/17 13:23:03;;;;;;;2.15;2.05;;;;;;;13.08;57.33;63344.59;5022581;28;20226;-75
2023/10/17 13:25:35;;;;;;;4.82;2.30;;;;;;;13.01;57.62;63339.88;5018629;28;20551;-75
2023/10/17 13:28:02;;;;;;;2.67;2.50;;;;;;;12.93;58.19;63334.16;5021886;28;20240;-75
2023/10/17 13:30:31;;;;;;;2.30;2.20;;;;;;;12.76;59.35;63308.84;5024425;28;20219;-76